Time;durP1;ratioP1;P1;durP2;ratioP2;P2;SDS_P1;SDS_P2;PMS_P1;PMS_P2;Temp;Humidity;BMP_temperature;BMP_pressure;BME280_temperature;BME280_humidity;BME280_pressure;Samples;Min_cycle;Max_cycle;Signal;HPM_P1;HPM_P2
2022/08/15 00:01:09;;;;;;;9.13;6.53;;;;;;;;;;4939343;29;20588;-83
2022/08/15 00:04:14;;;;;;;9.17;6.27;;;;;;;;;;4948761;29;20208;-83
2022/08/15 00:07:18;;;;;;;7.10;6.23;;;;;;;;;;4948145;29;20184;-82
2022/08/15 00:10:22;;;;;;;6.80;6.10;;;;;;;;;;4939189;29;20529;-82
2022/08/15 00:13:28;;;;;;;6.77;6.03;;;;;;;;;;4938770;29;20183;-83
2022/08/15 00:16:36;;;;;;;7.67;6.27;;;;;;;;;;4939082;29;20184;-82
2022/08/15 00:19:47;;;;;;;6.30;5.70;;;;;;;;;;4939263;29;20778;-82
2022/08/15 00:22:52;;;;;;;8.00;6.40;;;;;;;;;;4942571;29;20184;-82
2022/08/15 00:25:59;;;;;;;6.83;6.13;;;;;;;;;;4942204;29;20208;-82
2022/08/15 00:29:06;;;;;;;6.57;5.97;;;;;;;;;;4931495;29;20212;-82
2022/08/15 00:32:16;;;;;;;8.03;6.13;;;;;;;;;;4943497;29;20189;-82
2022/08/15 00:35:36;;;;;;;7.10;6.37;;;;;;;;;;4945836;29;20443;-82
2022/08/15 00:38:40;;;;;;;7.10;6.40;;;;;;;;;;4948622;29;20201;-82
2022/08/15 00:41:48;;;;;;;54.63;8.73;;;;;;;;;;4933126;29;20176;-82
2022/08/15 00:44:54;;;;;;;41.90;9.27;;;;;;;;;;4932183;29;20663;-82
2022/08/15 00:51:44;;;;;;;7.63;6.30;;;;;;;;;;4953123;29;20231;-83
2022/08/15 00:54:53;;;;;;;8.40;7.03;;;;;;;;;;4948534;29;20199;-84
2022/08/15 00:58:00;;;;;;;7.90;7.10;;;;;;;;;;4960475;29;20180;-83
2022/08/15 01:01:08;;;;;;;9.23;7.80;;;;;;;;;;4950066;29;20219;-84
2022/08/15 01:04:14;;;;;;;13.63;7.93;;;;;;;;;;4960117;29;20180;-83
2022/08/15 01:07:20;;;;;;;8.40;7.40;;;;;;;;;;4949203;29;20192;-83
2022/08/15 01:10:24;;;;;;;8.87;6.57;;;;;;;;;;4959756;29;20227;-84
2022/08/15 01:13:32;;;;;;;7.37;6.47;;;;;;;;;;4949362;29;20183;-83
2022/08/15 01:16:40;;;;;;;7.47;6.77;;;;;;;;;;4946884;29;20180;-84
2022/08/15 01:19:49;;;;;;;7.40;6.63;;;;;;;;;;4929316;29;20232;-83
2022/08/15 01:23:03;;;;;;;7.93;6.70;;;;;;;;;;4950705;28;20195;-83
2022/08/15 01:26:08;;;;;;;10.00;7.33;;;;;;;;;;4930081;29;20687;-83
2022/08/15 01:29:15;;;;;;;8.13;7.27;;;;;;;;;;4929493;29;20188;-83
2022/08/15 01:32:20;;;;;;;8.50;6.93;;;;;;;;;;4929347;29;20180;-85
2022/08/15 01:35:27;;;;;;;10.63;7.87;;;;;;;;;;4929373;29;20177;-85
2022/08/15 01:38:39;;;;;;;9.20;7.57;;;;;;;;;;4929920;29;20188;-82
2022/08/15 01:41:51;;;;;;;8.23;7.30;;;;;;;;;;4954420;29;20536;-82
2022/08/15 01:45:18;;;;;;;7.90;6.53;;;;;;;;;;4948939;29;20207;-82
2022/08/15 01:48:49;;;;;;;7.67;6.87;;;;;;;;;;4950664;29;20195;-83
2022/08/15 01:51:57;;;;;;;7.00;6.30;;;;;;;;;;4930448;29;20188;-83
2022/08/15 01:55:05;;;;;;;8.83;6.47;;;;;;;;;;4956577;29;20192;-82
2022/08/15 01:58:10;;;;;;;8.20;7.10;;;;;;;;;;4939707;29;20179;-82
2022/08/15 02:01:18;;;;;;;11.23;6.37;;;;;;;;;;4942249;29;20224;-82
2022/08/15 02:04:28;;;;;;;7.53;6.67;;;;;;;;;;4931093;29;20192;-82
2022/08/15 02:07:32;;;;;;;8.23;6.53;;;;;;;;;;4943682;29;20195;-82
2022/08/15 02:10:43;;;;;;;8.30;7.30;;;;;;;;;;4951100;29;20228;-83
2022/08/15 02:13:54;;;;;;;8.70;7.00;;;;;;;;;;4935720;29;20192;-82
2022/08/15 02:16:58;;;;;;;7.37;6.67;;;;;;;;;;4926361;29;20187;-83
2022/08/15 02:20:04;;;;;;;8.40;7.57;;;;;;;;;;4938454;29;20705;-83
2022/08/15 02:23:08;;;;;;;8.70;7.67;;;;;;;;;;4950186;29;20184;-81
2022/08/15 02:26:13;;;;;;;8.30;7.43;;;;;;;;;;4938361;29;20686;-82
2022/08/15 02:29:17;;;;;;;10.27;7.17;;;;;;;;;;4949263;29;20188;-83
2022/08/15 02:32:22;;;;;;;8.37;6.83;;;;;;;;;;4949047;29;20179;-82
2022/08/15 02:35:30;;;;;;;7.07;6.37;;;;;;;;;;4938382;29;20203;-82
2022/08/15 02:38:34;;;;;;;7.50;5.97;;;;;;;;;;4931000;29;20188;-82
2022/08/15 02:41:43;;;;;;;7.97;5.60;;;;;;;;;;4948959;29;20638;-82
2022/08/15 02:44:52;;;;;;;6.03;5.43;;;;;;;;;;4938330;29;20195;-82
2022/08/15 02:47:58;;;;;;;7.17;5.27;;;;;;;;;;4934564;29;20212;-82
2022/08/15 02:51:07;;;;;;;6.20;5.60;;;;;;;;;;4948454;29;20222;-82
2022/08/15 02:54:11;;;;;;;6.50;5.10;;;;;;;;;;4948455;29;20184;-81
2022/08/15 02:57:16;;;;;;;7.00;4.60;;;;;;;;;;4948623;29;20180;-81
2022/08/15 03:00:22;;;;;;;5.93;5.03;;;;;;;;;;4938492;29;20215;-82
2022/08/15 03:03:29;;;;;;;6.37;4.87;;;;;;;;;;4939764;29;20229;-82
2022/08/15 03:06:34;;;;;;;7.37;5.30;;;;;;;;;;4928753;29;20212;-82
2022/08/15 03:09:43;;;;;;;6.03;5.03;;;;;;;;;;4938640;29;20232;-83
2022/08/15 03:12:53;;;;;;;7.37;5.33;;;;;;;;;;4931852;29;20204;-83
2022/08/15 03:16:00;;;;;;;5.53;4.13;;;;;;;;;;4930438;29;20228;-83
2022/08/15 03:19:18;;;;;;;6.80;5.00;;;;;;;;;;4944380;29;20200;-83
2022/08/15 03:22:23;;;;;;;7.83;4.50;;;;;;;;;;4944352;29;20180;-82
2022/08/15 03:25:27;;;;;;;6.00;4.40;;;;;;;;;;4938677;29;20228;-81
2022/08/15 03:28:33;;;;;;;10.17;4.47;;;;;;;;;;4958027;29;20188;-82
2022/08/15 03:31:47;;;;;;;6.07;4.50;;;;;;;;;;4937360;29;20188;-82
2022/08/15 03:34:54;;;;;;;5.80;4.27;;;;;;;;;;4928224;29;20184;-82
2022/08/15 03:37:59;;;;;;;8.53;4.37;;;;;;;;;;4928186;29;20180;-83
2022/08/15 03:41:08;;;;;;;6.07;4.87;;;;;;;;;;4928025;29;20220;-83
2022/08/15 03:44:15;;;;;;;9.20;4.37;;;;;;;;;;4928630;29;20196;-82
2022/08/15 03:47:21;;;;;;;6.30;4.20;;;;;;;;;;4928804;29;20702;-82
2022/08/15 03:50:26;;;;;;;7.03;4.13;;;;;;;;;;4928608;29;20223;-82
2022/08/15 03:53:42;;;;;;;5.03;4.27;;;;;;;;;;4918211;29;20196;-82
2022/08/15 03:56:46;;;;;;;6.50;4.10;;;;;;;;;;4928012;29;20666;-82
2022/08/15 03:59:51;;;;;;;10.83;4.67;;;;;;;;;;4947585;29;20219;-82
2022/08/15 04:03:12;;;;;;;5.97;4.17;;;;;;;;;;4948253;29;20658;-82
2022/08/15 04:06:19;;;;;;;5.93;4.83;;;;;;;;;;4931598;29;20216;-82
2022/08/15 04:09:27;;;;;;;5.27;3.97;;;;;;;;;;4928723;29;20219;-82
2022/08/15 04:12:35;;;;;;;5.40;4.13;;;;;;;;;;4945382;29;20200;-83
2022/08/15 04:15:41;;;;;;;6.77;4.10;;;;;;;;;;4947256;29;20188;-83
2022/08/15 04:18:46;;;;;;;7.37;4.00;;;;;;;;;;4958627;29;20552;-82
2022/08/15 04:21:51;;;;;;;5.87;4.20;;;;;;;;;;5032013;22;20573;-83
2022/08/15 04:25:01;;;;;;;6.53;3.73;;;;;;;;;;4991129;28;20186;-83
2022/08/15 04:28:06;;;;;;;9.37;3.90;;;;;;;;;;5003318;28;20193;-83
2022/08/15 04:31:14;;;;;;;5.73;4.03;;;;;;;;;;4994663;28;20218;-83
2022/08/15 04:34:21;;;;;;;6.97;3.93;;;;;;;;;;4972861;28;20178;-83
2022/08/15 04:37:26;;;;;;;6.17;3.90;;;;;;;;;;4983126;28;20182;-83
2022/08/15 04:40:31;;;;;;;8.27;4.17;;;;;;;;;;4983616;28;20222;-83
2022/08/15 04:43:40;;;;;;;6.43;4.30;;;;;;;;;;4983106;28;20190;-84
2022/08/15 04:46:51;;;;;;;5.53;3.93;;;;;;;;;;4975607;28;20204;-85
2022/08/15 04:49:55;;;;;;;4.93;3.70;;;;;;;;;;4965884;28;20516;-85
2022/08/15 04:53:01;;;;;;;4.73;3.50;;;;;;;;;;4954641;29;20195;-85
2022/08/15 04:56:06;;;;;;;5.67;3.27;;;;;;;;;;4974131;28;20195;-84
2022/08/15 04:59:14;;;;;;;6.10;3.40;;;;;;;;;;4976755;28;20202;-85
2022/08/15 05:02:24;;;;;;;6.93;3.70;;;;;;;;;;4965907;28;20198;-84
2022/08/15 05:05:30;;;;;;;4.80;3.50;;;;;;;;;;4955325;28;20187;-85
2022/08/15 05:08:37;;;;;;;6.00;3.40;;;;;;;;;;4988302;28;20198;-85
2022/08/15 05:11:46;;;;;;;6.53;3.50;;;;;;;;;;4955491;28;20227;-84
2022/08/15 05:14:50;;;;;;;7.57;3.50;;;;;;;;;;4955083;28;20194;-83
2022/08/15 05:17:58;;;;;;;4.00;3.60;;;;;;;;;;4971716;28;20195;-84
2022/08/15 05:21:07;;;;;;;6.27;3.33;;;;;;;;;;4967349;28;20234;-83
2022/08/15 05:24:12;;;;;;;7.47;3.60;;;;;;;;;;4959030;28;20204;-83
2022/08/15 05:27:18;;;;;;;7.50;3.20;;;;;;;;;;4973590;28;20219;-84
2022/08/15 05:30:23;;;;;;;6.47;3.43;;;;;;;;;;4946460;29;20223;-84
2022/08/15 05:33:29;;;;;;;5.40;3.07;;;;;;;;;;5003153;28;20202;-84
2022/08/15 05:36:34;;;;;;;4.60;3.07;;;;;;;;;;4985977;28;20202;-85
2022/08/15 05:39:40;;;;;;;4.47;3.07;;;;;;;;;;4985138;28;20530;-85
2022/08/15 05:43:03;;;;;;;11.00;3.27;;;;;;;;;;4984651;28;20217;-84
2022/08/15 05:46:46;;;;;;;4.70;2.70;;;;;;;;;;4973617;28;20202;-84
2022/08/15 05:49:59;;;;;;;4.63;2.93;;;;;;;;;;4973534;28;20179;-85
2022/08/15 05:53:08;;;;;;;3.97;2.80;;;;;;;;;;4974241;28;20527;-85
2022/08/15 05:57:10;;;;;;;4.93;3.23;;;;;;;;;;4966251;28;20183;-84
2022/08/15 06:00:15;;;;;;;7.03;3.00;;;;;;;;;;4939941;29;20227;-84
2022/08/15 06:03:26;;;;;;;4.00;2.70;;;;;;;;;;4968689;28;20524;-84
2022/08/15 06:06:33;;;;;;;2.67;2.40;;;;;;;;;;4956666;29;20215;-85
2022/08/15 06:09:51;;;;;;;5.50;2.63;;;;;;;;;;4944771;29;20199;-85
2022/08/15 06:13:09;;;;;;;3.90;2.80;;;;;;;;;;4946447;29;20188;-84
2022/08/15 06:16:32;;;;;;;6.03;2.83;;;;;;;;;;4983415;28;20190;-84
2022/08/15 06:19:41;;;;;;;4.80;2.50;;;;;;;;;;4968725;28;20186;-84
2022/08/15 06:23:14;;;;;;;5.23;2.73;;;;;;;;;;4967960;28;20187;-84
2022/08/15 06:26:27;;;;;;;8.77;2.20;;;;;;;;;;4989693;28;20210;-84
2022/08/15 06:30:03;;;;;;;4.77;2.70;;;;;;;;;;4980103;28;20190;-84
2022/08/15 06:33:39;;;;;;;2.43;2.23;;;;;;;;;;4994072;28;20179;-85
2022/08/15 06:36:53;;;;;;;5.50;2.53;;;;;;;;;;4992550;28;20190;-84
2022/08/15 06:40:04;;;;;;;8.50;2.97;;;;;;;;;;4992429;28;20640;-84
2022/08/15 06:43:15;;;;;;;5.53;2.40;;;;;;;;;;4992846;28;20206;-84
2022/08/15 06:46:33;;;;;;;3.53;2.60;;;;;;;;;;4990280;28;20214;-84
2022/08/15 06:49:46;;;;;;;4.63;2.57;;;;;;;;;;4993318;28;20191;-84
2022/08/15 06:52:58;;;;;;;5.20;2.60;;;;;;;;;;4960354;28;20191;-84
2022/08/15 06:56:21;;;;;;;5.07;2.87;;;;;;;;;;4960212;28;20190;-84
2022/08/15 06:59:43;;;;;;;8.67;2.83;;;;;;;;;;4970030;28;20178;-84
2022/08/15 07:03:14;;;;;;;5.50;2.50;;;;;;;;;;4958601;28;20179;-84
2022/08/15 07:06:24;;;;;;;3.00;2.30;;;;;;;;;;4969162;28;20214;-85
2022/08/15 07:09:47;;;;;;;5.13;2.50;;;;;;;;;;4956915;28;20179;-85
2022/08/15 07:13:12;;;;;;;5.40;2.63;;;;;;;;;;4958880;28;20186;-84
2022/08/15 07:16:27;;;;;;;5.70;2.50;;;;;;;;;;4985989;28;20183;-84
2022/08/15 07:19:35;;;;;;;7.27;2.83;;;;;;;;;;4946606;28;20200;-85
2022/08/15 07:22:57;;;;;;;5.00;2.80;;;;;;;;;;4945979;29;20528;-84
2022/08/15 07:26:11;;;;;;;8.10;2.53;;;;;;;;;;4977824;28;20213;-85
2022/08/15 07:29:36;;;;;;;5.57;2.53;;;;;;;;;;4961539;28;20182;-85
2022/08/15 07:32:41;;;;;;;7.60;2.60;;;;;;;;;;4983876;28;20179;-85
2022/08/15 07:36:13;;;;;;;3.93;2.40;;;;;;;;;;4977199;28;20190;-85
2022/08/15 07:39:24;;;;;;;4.43;2.60;;;;;;;;;;4963724;28;20182;-85
2022/08/15 07:42:37;;;;;;;5.23;2.70;;;;;;;;;;4952345;28;20190;-84
2022/08/15 07:45:45;;;;;;;2.73;2.30;;;;;;;;;;4953294;28;20194;-85
2022/08/15 07:49:02;;;;;;;5.37;2.53;;;;;;;;;;4954215;28;20175;-85
2022/08/15 07:52:16;;;;;;;2.47;2.20;;;;;;;;;;4963066;28;20199;-85
2022/08/15 07:55:21;;;;;;;4.80;2.37;;;;;;;;;;4963708;28;20187;-85
2022/08/15 07:58:26;;;;;;;3.43;2.50;;;;;;;;;;4974499;28;20213;-85
2022/08/15 08:01:31;;;;;;;3.20;2.30;;;;;;;;;;4963577;28;20559;-86
2022/08/15 08:04:36;;;;;;;5.37;2.20;;;;;;;;;;4963518;28;20646;-88
2022/08/15 08:07:49;;;;;;;4.27;2.10;;;;;;;;;;4952443;28;20230;-90
2022/08/15 08:11:06;;;;;;;5.93;2.23;;;;;;;;;;4953666;28;20218;-86
2022/08/15 08:14:42;;;;;;;3.03;2.07;;;;;;;;;;4952315;28;20187;-85
2022/08/15 08:17:54;;;;;;;9.47;2.33;;;;;;;;;;4953368;28;20187;-86
2022/08/15 08:21:04;;;;;;;2.60;1.90;;;;;;;;;;4944284;28;20242;-85
2022/08/15 08:24:32;;;;;;;3.23;2.20;;;;;;;;;;4962646;28;20203;-86
2022/08/15 08:27:56;;;;;;;2.60;1.70;;;;;;;;;;4940205;28;20223;-85
2022/08/15 08:31:20;;;;;;;4.40;1.80;;;;;;;;;;4967351;28;20212;-85
2022/08/15 08:34:31;;;;;;;2.50;1.90;;;;;;;;;;4989066;28;20193;-85
2022/08/15 08:37:52;;;;;;;1.83;1.60;;;;;;;;;;4978650;28;20180;-85
2022/08/15 08:41:25;;;;;;;5.87;1.50;;;;;;;;;;4967534;28;20224;-87
2022/08/15 09:58:51;;;;;;;2.83;1.40;;;;;;;;;;4978714;28;20209;-87
2022/08/15 10:02:15;;;;;;;2.00;1.40;;;;;;;;;;4976724;28;20222;-87
2022/08/15 10:05:27;;;;;;;2.65;1.42;;;;;;;;;;4977180;28;20185;-87
2022/08/15 10:08:50;;;;;;;2.78;1.70;;;;;;;;;;4976817;28;20211;-87
2022/08/15 10:11:59;;;;;;;1.83;1.50;;;;;;;;;;4977388;28;20229;-87
2022/08/15 10:15:22;;;;;;;8.38;2.05;;;;;;;;;;4977387;28;20202;-87
2022/08/15 10:18:26;;;;;;;1.40;1.20;;;;;;;;;;4988168;28;20187;-87
2022/08/15 10:21:40;;;;;;;1.83;1.65;;;;;;;;;;4979563;28;20703;-87
2022/08/15 10:24:44;;;;;;;3.08;1.58;;;;;;;;;;4977624;28;20186;-87
2022/08/15 10:28:05;;;;;;;3.78;1.50;;;;;;;;;;4955406;28;20210;-87
2022/08/15 10:31:13;;;;;;;2.15;1.70;;;;;;;;;;4987774;28;20221;-88
2022/08/15 10:34:32;;;;;;;1.92;1.60;;;;;;;;;;4976663;28;20179;-88
2022/08/15 10:37:51;;;;;;;4.03;1.52;;;;;;;;;;4977081;28;20191;-87
2022/08/15 10:41:24;;;;;;;2.97;1.58;;;;;;;;;;4977310;28;20215;-87
2022/08/15 10:44:32;;;;;;;1.98;1.77;;;;;;;;;;4954317;28;20187;-87
2022/08/15 10:47:49;;;;;;;3.78;1.67;;;;;;;;;;4975643;28;20224;-88
2022/08/15 10:51:02;;;;;;;3.38;1.52;;;;;;;;;;4987144;28;20227;-88
2022/08/15 10:54:28;;;;;;;4.80;1.33;;;;;;;;;;4986577;28;20191;-88
2022/08/15 10:57:48;;;;;;;2.63;1.48;;;;;;;;;;4975308;28;20183;-88
2022/08/15 11:01:12;;;;;;;4.80;1.50;;;;;;;;;;4964104;28;20698;-88
2022/08/15 11:04:31;;;;;;;2.72;1.48;;;;;;;;;;4974763;28;20199;-88
2022/08/15 11:07:37;;;;;;;3.08;1.50;;;;;;;;;;4953087;28;20204;-86
2022/08/15 11:10:41;;;;;;;1.85;1.45;;;;;;;;;;4975020;28;20215;-87
2022/08/15 11:13:56;;;;;;;1.48;1.38;;;;;;;;;;4975308;28;20199;-86
2022/08/15 11:17:01;;;;;;;1.73;1.30;;;;;;;;;;4975096;28;20639;-86
2022/08/15 11:20:15;;;;;;;3.15;1.60;;;;;;;;;;4986392;28;20694;-86
2022/08/15 11:23:36;;;;;;;3.20;1.63;;;;;;;;;;4975823;28;20626;-86
2022/08/15 11:26:45;;;;;;;2.75;1.55;;;;;;;;;;4953400;28;20188;-86
2022/08/15 11:29:51;;;;;;;5.43;1.48;;;;;;;;;;4953075;28;20179;-87
2022/08/15 11:33:15;;;;;;;1.65;1.23;;;;;;;;;;4986809;28;20524;-86
2022/08/15 11:36:27;;;;;;;5.55;1.40;;;;;;;;;;4986448;28;20192;-87
2022/08/15 11:39:31;;;;;;;3.85;1.40;;;;;;;;;;4975236;28;20179;-86
2022/08/15 11:42:38;;;;;;;2.17;1.10;;;;;;;;;;4986466;28;20179;-86
2022/08/15 11:45:48;;;;;;;2.63;1.27;;;;;;;;;;4975099;28;20195;-86
2022/08/15 11:49:05;;;;;;;5.22;1.40;;;;;;;;;;4974446;28;20697;-86
2022/08/15 11:52:10;;;;;;;1.50;1.20;;;;;;;;;;4974948;28;20521;-86
2022/08/15 11:55:20;;;;;;;3.78;1.60;;;;;;;;;;4975660;28;20179;-86
2022/08/15 11:58:32;;;;;;;2.50;1.55;;;;;;;;;;4952555;28;20195;-86
2022/08/15 12:01:37;;;;;;;3.17;1.60;;;;;;;;;;4974168;28;20721;-86
2022/08/15 12:04:44;;;;;;;1.85;1.33;;;;;;;;;;4952534;28;20190;-87
2022/08/15 12:07:48;;;;;;;1.65;1.20;;;;;;;;;;4978065;28;20203;-87
2022/08/15 12:11:25;;;;;;;4.85;1.65;;;;;;;;;;4979553;28;20222;-87
2022/08/15 12:14:30;;;;;;;3.60;1.55;;;;;;;;;;4958140;28;20544;-86
2022/08/15 12:17:34;;;;;;;2.05;1.70;;;;;;;;;;4992898;28;20184;-86
2022/08/15 12:21:03;;;;;;;1.73;1.30;;;;;;;;;;4994480;28;20227;-86
2022/08/15 12:24:07;;;;;;;1.80;1.52;;;;;;;;;;4964559;28;20538;-86
2022/08/15 12:27:13;;;;;;;2.25;1.63;;;;;;;;;;4986378;28;20183;-87
2022/08/15 12:30:17;;;;;;;2.92;1.52;;;;;;;;;;4985731;28;20334;-87
2022/08/15 12:33:22;;;;;;;5.47;1.35;;;;;;;;;;4985878;28;20184;-87
2022/08/15 12:36:28;;;;;;;2.10;1.45;;;;;;;;;;4998397;28;20428;-87
2022/08/15 12:39:42;;;;;;;1.90;1.60;;;;;;;;;;5013434;23;20234;-91
2022/08/15 12:42:45;;;;;;;2.63;1.90;;;;;;;;;;4955506;28;20187;-90
2022/08/15 12:45:49;;;;;;;1.85;1.50;;;;;;;;;;4966431;28;20191;-91
2022/08/15 12:48:54;;;;;;;3.63;1.58;;;;;;;;;;4955087;28;20214;-91
2022/08/15 12:51:58;;;;;;;2.17;1.40;;;;;;;;;;4966426;28;20253;-92
2022/08/15 12:55:06;;;;;;;2.28;1.50;;;;;;;;;;4958036;28;20179;-88
2022/08/15 12:58:11;;;;;;;1.60;1.50;;;;;;;;;;4955555;28;20207;-88
2022/08/15 13:01:15;;;;;;;2.55;1.70;;;;;;;;;;4954692;28;20183;-88
2022/08/15 13:04:19;;;;;;;2.88;1.50;;;;;;;;;;4976812;28;20662;-88
2022/08/15 13:07:25;;;;;;;2.33;1.65;;;;;;;;;;4954356;28;20191;-88
2022/08/15 13:10:30;;;;;;;2.80;1.42;;;;;;;;;;4965521;28;20577;-88
2022/08/15 13:13:34;;;;;;;2.85;1.50;;;;;;;;;;4965581;28;20199;-87
2022/08/15 13:16:39;;;;;;;1.73;1.40;;;;;;;;;;4965204;28;20198;-88
2022/08/15 13:26:37;;;;;;;1.45;1.25;;;;;;;;;;5016088;28;20178;-89
2022/08/15 13:29:41;;;;;;;2.50;1.40;;;;;;;;;;5004436;28;20222;-88
2022/08/15 13:32:46;;;;;;;1.45;1.20;;;;;;;;;;5016387;28;20177;-88
2022/08/15 13:35:50;;;;;;;1.67;1.48;;;;;;;;;;5004232;28;20194;-88
2022/08/15 13:38:55;;;;;;;2.50;1.40;;;;;;;;;;5015247;28;20222;-87
2022/08/15 13:42:00;;;;;;;1.73;1.50;;;;;;;;;;5015445;28;20182;-87
2022/08/15 13:45:05;;;;;;;1.52;1.42;;;;;;;;;;5003982;28;20182;-88
2022/08/15 13:48:16;;;;;;;1.77;1.48;;;;;;;;;;5004157;28;20182;-88
2022/08/15 13:51:25;;;;;;;2.90;1.42;;;;;;;;;;5004219;28;20194;-88
2022/08/15 13:54:29;;;;;;;1.48;1.30;;;;;;;;;;5003613;28;20532;-89
2022/08/15 13:57:34;;;;;;;3.35;1.58;;;;;;;;;;5003524;28;20178;-90
2022/08/15 14:00:38;;;;;;;2.50;1.60;;;;;;;;;;5003361;28;20221;-90
2022/08/15 14:03:42;;;;;;;2.58;1.40;;;;;;;;;;5003852;28;20178;-90
2022/08/15 14:06:47;;;;;;;3.72;1.77;;;;;;;;;;5014597;28;20182;-90
2022/08/15 14:09:51;;;;;;;1.77;1.55;;;;;;;;;;5016908;28;20213;-90
2022/08/15 14:12:55;;;;;;;1.98;1.67;;;;;;;;;;5003576;28;20178;-90
2022/08/15 14:16:00;;;;;;;2.35;1.65;;;;;;;;;;5015704;28;20178;-90
2022/08/15 14:19:07;;;;;;;3.35;1.40;;;;;;;;;;5025735;28;20229;-90
2022/08/15 14:22:11;;;;;;;1.95;1.75;;;;;;;;;;5004068;28;20181;-88
2022/08/15 14:25:16;;;;;;;2.78;1.50;;;;;;;;;;5014529;28;20198;-88
2022/08/15 14:28:20;;;;;;;19.88;2.67;;;;;;;;;;5004866;28;20202;-88
2022/08/15 14:31:24;;;;;;;2.10;1.80;;;;;;;;;;4998725;28;20629;-88
2022/08/15 14:34:28;;;;;;;2.97;1.50;;;;;;;;;;5020618;28;20186;-88
2022/08/15 14:37:33;;;;;;;1.55;1.40;;;;;;;;;;5015253;28;20186;-89
2022/08/15 14:40:39;;;;;;;3.05;1.45;;;;;;;;;;5028329;28;20214;-88
2022/08/15 14:43:44;;;;;;;3.40;1.50;;;;;;;;;;5004508;28;20202;-88
2022/08/15 14:46:49;;;;;;;2.10;1.40;;;;;;;;;;5004209;28;20194;-88
2022/08/15 14:49:54;;;;;;;2.50;1.60;;;;;;;;;;5005258;28;20209;-88
2022/08/15 14:52:58;;;;;;;2.47;1.52;;;;;;;;;;5020468;28;20261;-88
2022/08/15 14:56:03;;;;;;;2.53;1.80;;;;;;;;;;5010662;28;20178;-88
2022/08/15 14:59:07;;;;;;;2.25;1.77;;;;;;;;;;5003080;28;20222;-88
2022/08/15 15:02:14;;;;;;;2.92;1.92;;;;;;;;;;5005994;28;20185;-88
2022/08/15 15:05:19;;;;;;;3.33;1.70;;;;;;;;;;5021224;28;20193;-87
2022/08/15 15:08:27;;;;;;;2.80;1.50;;;;;;;;;;5016580;28;20252;-87
2022/08/15 15:11:31;;;;;;;2.10;1.75;;;;;;;;;;5017209;28;20492;-88
2022/08/15 15:14:35;;;;;;;2.13;1.92;;;;;;;;;;5002136;28;20182;-88
2022/08/15 15:17:40;;;;;;;3.40;1.80;;;;;;;;;;5003066;28;20190;-88
2022/08/15 15:20:44;;;;;;;3.97;1.50;;;;;;;;;;5014846;28;20178;-88
2022/08/15 15:23:49;;;;;;;3.03;1.40;;;;;;;;;;5013625;28;20198;-88
2022/08/15 15:30:53;;;;;;;3.67;1.70;;;;;;;;;;5024695;28;20174;-88
2022/08/15 15:33:57;;;;;;;3.10;1.77;;;;;;;;;;5002332;28;20178;-87
2022/08/15 15:37:01;;;;;;;2.42;1.80;;;;;;;;;;5001978;28;20629;-89
2022/08/15 15:40:12;;;;;;;4.20;1.83;;;;;;;;;;5013246;28;20230;-88
2022/08/15 15:43:16;;;;;;;3.30;1.70;;;;;;;;;;5001916;28;20186;-89
2022/08/15 15:46:20;;;;;;;1.85;1.50;;;;;;;;;;5002491;28;20182;-89
2022/08/15 15:49:31;;;;;;;2.40;1.67;;;;;;;;;;5001763;28;20205;-88
2022/08/15 15:52:39;;;;;;;3.08;1.70;;;;;;;;;;5001871;28;20182;-88
2022/08/15 15:55:43;;;;;;;3.97;1.85;;;;;;;;;;5001788;28;20182;-88
2022/08/15 15:58:47;;;;;;;2.65;1.92;;;;;;;;;;5001649;28;20565;-88
2022/08/15 16:01:52;;;;;;;2.75;1.73;;;;;;;;;;5001626;28;20636;-88
2022/08/15 16:04:56;;;;;;;2.90;1.73;;;;;;;;;;5012818;28;20201;-89
2022/08/15 16:08:00;;;;;;;3.20;2.08;;;;;;;;;;5001650;28;20536;-89
2022/08/15 16:11:34;;;;;;;2.72;1.85;;;;;;;;;;5001689;28;20201;-89
2022/08/15 16:14:46;;;;;;;2.63;1.77;;;;;;;;;;5013306;28;20182;-89
2022/08/15 16:17:53;;;;;;;3.13;1.95;;;;;;;;;;5013002;28;20190;-88
2022/08/15 16:21:03;;;;;;;2.47;1.90;;;;;;;;;;5002854;28;20180;-89
2022/08/15 16:24:11;;;;;;;3.33;1.90;;;;;;;;;;5002228;28;20186;-89
2022/08/15 16:27:36;;;;;;;3.80;1.83;;;;;;;;;;5002248;28;20176;-88
2022/08/15 16:31:18;;;;;;;2.95;1.95;;;;;;;;;;5002091;28;20226;-88
2022/08/15 16:34:46;;;;;;;3.72;2.08;;;;;;;;;;5006802;28;20186;-88
2022/08/15 16:37:56;;;;;;;3.10;1.95;;;;;;;;;;5001755;28;20185;-88
2022/08/15 16:41:15;;;;;;;4.38;1.80;;;;;;;;;;5014545;28;20617;-88
2022/08/15 16:44:27;;;;;;;3.20;1.80;;;;;;;;;;5013846;28;20182;-88
2022/08/15 16:47:43;;;;;;;4.88;2.20;;;;;;;;;;5015301;28;20189;-88
2022/08/15 16:51:07;;;;;;;2.05;1.90;;;;;;;;;;5027956;28;20207;-88
2022/08/15 16:54:48;;;;;;;2.47;2.10;;;;;;;;;;5028216;28;20184;-88
2022/08/15 16:58:14;;;;;;;2.15;1.70;;;;;;;;;;5006245;28;20201;-88
2022/08/15 17:01:50;;;;;;;3.25;2.00;;;;;;;;;;5017832;28;20183;-88
2022/08/15 17:05:13;;;;;;;3.25;2.15;;;;;;;;;;5007973;28;20180;-88
2022/08/15 17:08:23;;;;;;;3.13;1.83;;;;;;;;;;5017619;28;20186;-88
2022/08/15 17:12:23;;;;;;;3.03;1.88;;;;;;;;;;5004818;28;20175;-88
2022/08/15 17:15:34;;;;;;;3.65;1.80;;;;;;;;;;4976647;28;20205;-88
2022/08/15 17:19:08;;;;;;;2.15;1.80;;;;;;;;;;5006395;28;20228;-88
2022/08/15 17:22:23;;;;;;;3.08;2.13;;;;;;;;;;5020621;28;20179;-88
2022/08/15 17:25:37;;;;;;;1.85;1.58;;;;;;;;;;5004556;28;20185;-88
2022/08/15 17:28:47;;;;;;;3.30;2.15;;;;;;;;;;5007697;28;20224;-88
2022/08/15 17:31:55;;;;;;;2.90;2.20;;;;;;;;;;5027249;28;20654;-87
2022/08/15 17:35:01;;;;;;;3.88;1.85;;;;;;;;;;5017939;28;20183;-88
2022/08/15 17:38:06;;;;;;;2.95;1.77;;;;;;;;;;5006560;28;20187;-88
2022/08/15 17:41:15;;;;;;;4.10;1.98;;;;;;;;;;5005459;28;20183;-88
2022/08/15 17:44:30;;;;;;;2.78;2.05;;;;;;;;;;5006218;28;20183;-88
2022/08/15 17:47:39;;;;;;;5.20;2.28;;;;;;;;;;5008849;28;20198;-88
2022/08/15 17:50:50;;;;;;;114.07;7.80;;;;;;;;;;5005962;28;20207;-88
2022/08/15 17:54:02;;;;;;;41.83;3.78;;;;;;;;;;5004927;28;20218;-88
2022/08/15 17:57:18;;;;;;;21.35;2.78;;;;;;;;;;5015491;28;20182;-88
2022/08/15 18:00:25;;;;;;;44.03;3.80;;;;;;;;;;5005084;28;20221;-88
2022/08/15 18:03:29;;;;;;;6.33;1.83;;;;;;;;;;5003515;28;20197;-88
2022/08/15 18:06:34;;;;;;;12.67;2.73;;;;;;;;;;5018817;28;20199;-88
2022/08/15 18:09:41;;;;;;;19.27;3.20;;;;;;;;;;5015738;28;20692;-88
2022/08/15 18:12:46;;;;;;;9.13;2.07;;;;;;;;;;5005657;28;20192;-87
2022/08/15 18:16:08;;;;;;;4.47;1.87;;;;;;;;;;5016985;28;20203;-88
2022/08/15 18:19:13;;;;;;;4.47;2.00;;;;;;;;;;5016473;28;20223;-88
2022/08/15 18:22:20;;;;;;;7.57;2.20;;;;;;;;;;5015656;28;20614;-88
2022/08/15 18:25:29;;;;;;;7.30;1.93;;;;;;;;;;5003507;28;20182;-88
2022/08/15 18:28:33;;;;;;;6.90;2.07;;;;;;;;;;5003074;28;20181;-88
2022/08/15 18:31:43;;;;;;;4.47;2.07;;;;;;;;;;5014354;28;20518;-88
2022/08/15 18:34:53;;;;;;;4.83;2.00;;;;;;;;;;5003037;28;20190;-88
2022/08/15 18:38:18;;;;;;;5.07;2.50;;;;;;;;;;5014327;28;20185;-88
2022/08/15 18:41:29;;;;;;;4.87;1.80;;;;;;;;;;5059798;23;20233;-85
2022/08/15 18:44:40;;;;;;;3.13;2.03;;;;;;;;;;5022765;28;20209;-85
2022/08/15 18:47:45;;;;;;;3.23;1.83;;;;;;;;;;5011906;28;20173;-85
2022/08/15 18:51:15;;;;;;;4.17;1.70;;;;;;;;;;5003211;28;20230;-85
2022/08/15 18:54:23;;;;;;;2.00;1.60;;;;;;;;;;5013256;28;20226;-85
2022/08/15 18:57:40;;;;;;;3.50;1.60;;;;;;;;;;4979361;28;20186;-85
2022/08/15 19:01:04;;;;;;;4.60;1.93;;;;;;;;;;4990127;28;20214;-85
2022/08/15 19:04:11;;;;;;;2.73;1.50;;;;;;;;;;4981117;28;20187;-85
2022/08/15 19:07:21;;;;;;;3.27;2.20;;;;;;;;;;4980673;28;20516;-85
2022/08/15 19:10:29;;;;;;;3.80;1.90;;;;;;;;;;4979485;28;20222;-84
2022/08/15 19:13:37;;;;;;;2.77;2.07;;;;;;;;;;4957495;28;20519;-84
2022/08/15 19:17:01;;;;;;;4.00;1.93;;;;;;;;;;4956184;28;20183;-85
2022/08/15 19:20:17;;;;;;;3.70;2.00;;;;;;;;;;4955807;28;20211;-84
2022/08/15 19:23:22;;;;;;;4.60;2.17;;;;;;;;;;4955226;28;20184;-85
2022/08/15 19:26:58;;;;;;;5.07;2.10;;;;;;;;;;4977119;28;20638;-84
2022/08/15 19:30:18;;;;;;;3.37;2.00;;;;;;;;;;4969683;28;20222;-84
2022/08/15 19:33:32;;;;;;;3.03;2.10;;;;;;;;;;4954299;28;20190;-84
2022/08/15 19:36:39;;;;;;;3.73;1.70;;;;;;;;;;4964727;28;20669;-83
2022/08/15 19:40:06;;;;;;;3.00;2.00;;;;;;;;;;4966210;28;20214;-84
2022/08/15 19:43:32;;;;;;;4.73;2.07;;;;;;;;;;4964749;28;20179;-84
2022/08/15 19:47:20;;;;;;;2.37;2.17;;;;;;;;;;4975571;28;20199;-84
2022/08/15 19:54:31;;;;;;;2.47;1.77;;;;;;;;;;4975446;28;20187;-84
2022/08/15 19:58:02;;;;;;;5.87;2.17;;;;;;;;;;4953028;28;20191;-84
2022/08/15 20:01:16;;;;;;;1.83;1.67;;;;;;;;;;4960228;28;20218;-84
2022/08/15 20:05:15;;;;;;;4.50;2.07;;;;;;;;;;4964566;28;20183;-84
2022/08/15 20:08:27;;;;;;;1.90;1.67;;;;;;;;;;4962907;28;20171;-84
2022/08/15 20:12:16;;;;;;;2.63;1.70;;;;;;;;;;4964036;28;20575;-84
2022/08/15 20:15:44;;;;;;;5.07;1.90;;;;;;;;;;4962008;28;20207;-84
2022/08/15 20:19:11;;;;;;;3.43;1.80;;;;;;;;;;4964123;28;20622;-84
2022/08/15 20:22:29;;;;;;;3.73;1.73;;;;;;;;;;4953304;28;20175;-84
2022/08/15 20:25:44;;;;;;;2.93;1.77;;;;;;;;;;4974688;28;20187;-84
2022/08/15 20:29:10;;;;;;;4.50;1.70;;;;;;;;;;4977757;28;20198;-84
2022/08/15 20:32:22;;;;;;;2.40;1.67;;;;;;;;;;4979339;28;20175;-84
2022/08/15 20:36:00;;;;;;;3.80;1.97;;;;;;;;;;4980859;28;20179;-83
2022/08/15 20:39:07;;;;;;;2.83;1.73;;;;;;;;;;4957835;28;20183;-83
2022/08/15 20:42:18;;;;;;;4.27;1.80;;;;;;;;;;4960275;28;20175;-84